createdAt,value
2019-03-19T00:01:49.032Z,10.93
2019-03-19T00:06:54.525Z,16.70
2019-03-19T00:11:59.982Z,11.23
2019-03-19T00:17:05.321Z,16.20
2019-03-19T00:22:10.838Z,15.47
2019-03-19T00:27:16.370Z,13.65
2019-03-19T00:32:21.623Z,13.20
2019-03-19T00:37:27.073Z,19.67
2019-03-19T00:42:32.529Z,19.37
2019-03-19T00:47:37.907Z,22.03
2019-03-19T00:52:43.480Z,13.10
2019-03-19T00:57:49.039Z,18.30
2019-03-19T01:02:54.537Z,17.37
2019-03-19T01:08:00.053Z,15.17
2019-03-19T01:13:06.140Z,13.83
2019-03-19T01:18:11.673Z,14.53
2019-03-19T01:23:16.961Z,17.70
2019-03-19T01:28:22.506Z,12.30
2019-03-19T01:33:28.085Z,35.20
2019-03-19T01:38:33.676Z,18.77
2019-03-19T01:43:39.217Z,20.80
2019-03-19T01:48:44.679Z,16.17
2019-03-19T01:53:51.481Z,15.17
2019-03-19T01:58:56.929Z,17.50
2019-03-19T02:04:02.549Z,21.17
2019-03-19T02:09:09.666Z,17.07
2019-03-19T02:14:15.172Z,21.27
2019-03-19T02:19:20.774Z,18.10
2019-03-19T02:24:26.212Z,15.67
2019-03-19T02:29:31.776Z,16.80
2019-03-19T02:34:37.199Z,17.87
2019-03-19T02:39:42.786Z,17.03
2019-03-19T02:44:48.229Z,20.30
2019-03-19T02:49:53.736Z,20.73
2019-03-19T02:54:59.497Z,21.53
2019-03-19T03:00:05.538Z,17.37
2019-03-19T03:05:12.056Z,24.97
2019-03-19T03:10:17.486Z,15.90
2019-03-19T03:15:23.147Z,17.10
2019-03-19T03:20:28.607Z,27.00
2019-03-19T03:25:33.979Z,20.60
2019-03-19T03:30:39.649Z,23.03
2019-03-19T03:35:45.114Z,19.43
2019-03-19T03:40:50.510Z,20.57
2019-03-19T03:45:56.241Z,26.10
2019-03-19T03:51:01.587Z,18.03
2019-03-19T03:56:07.172Z,24.33
2019-03-19T04:01:12.614Z,21.53
2019-03-19T04:06:18.078Z,24.83
2019-03-19T04:11:23.753Z,18.80
2019-03-19T04:16:29.414Z,28.73
2019-03-19T04:21:35.089Z,25.03
2019-03-19T04:26:40.650Z,21.27
2019-03-19T04:31:46.215Z,21.60
2019-03-19T04:36:51.602Z,22.20
2019-03-19T04:41:57.034Z,23.33
2019-03-19T04:47:02.705Z,22.80
2019-03-19T04:52:08.426Z,18.70
2019-03-19T04:57:14.030Z,25.07
2019-03-19T05:02:19.703Z,22.00
2019-03-19T05:07:25.399Z,18.97
2019-03-19T05:12:30.827Z,22.17
2019-03-19T05:17:36.507Z,17.30
2019-03-19T05:22:41.994Z,19.97
2019-03-19T05:27:47.650Z,17.23
2019-03-19T05:32:53.202Z,21.83
2019-03-19T05:37:58.726Z,23.50
2019-03-19T05:43:04.223Z,22.10
2019-03-19T05:48:09.704Z,22.27
2019-03-19T05:53:15.327Z,22.20
2019-03-19T05:58:20.993Z,22.93
2019-03-19T06:03:26.594Z,20.73
2019-03-19T06:08:32.150Z,19.73
2019-03-19T06:13:37.604Z,23.63
2019-03-19T06:18:43.215Z,23.60
2019-03-19T06:23:48.791Z,21.20
2019-03-19T06:28:54.415Z,23.37
2019-03-19T06:33:59.853Z,25.33
2019-03-19T06:39:07.672Z,22.53
2019-03-19T06:44:13.357Z,24.23
2019-03-19T06:49:18.907Z,20.97
2019-03-19T06:54:24.387Z,22.73
2019-03-19T06:59:30.077Z,21.37
2019-03-19T07:04:35.705Z,24.13
2019-03-19T07:09:41.295Z,25.93
2019-03-19T07:14:46.863Z,25.73
2019-03-19T07:19:52.423Z,29.12
2019-03-19T07:24:58.114Z,29.92
2019-03-19T07:30:03.474Z,24.43
2019-03-19T07:35:09.205Z,26.33
2019-03-19T07:40:14.790Z,29.40
2019-03-19T07:45:20.229Z,22.50
2019-03-19T07:50:25.887Z,36.70
2019-03-19T07:55:31.655Z,25.23
2019-03-19T08:00:37.155Z,28.63
2019-03-19T08:05:43.170Z,27.97
2019-03-19T08:10:48.707Z,30.33
2019-03-19T08:15:54.042Z,25.27
2019-03-19T08:20:59.518Z,26.73
2019-03-19T08:26:05.017Z,32.23
2019-03-19T08:31:10.509Z,25.10
2019-03-19T08:36:15.901Z,22.53
2019-03-19T08:41:21.226Z,25.03
2019-03-19T08:46:26.687Z,31.27
2019-03-19T08:51:32.213Z,25.27
2019-03-19T08:56:37.444Z,29.07
2019-03-19T09:01:44.082Z,25.53
2019-03-19T09:06:49.777Z,25.33
2019-03-19T09:11:55.181Z,25.90
2019-03-19T09:17:00.807Z,30.33
2019-03-19T09:22:06.472Z,22.80
2019-03-19T09:27:12.050Z,27.43
2019-03-19T09:32:17.604Z,23.73
2019-03-19T09:37:23.173Z,20.90
2019-03-19T09:42:28.834Z,21.30
2019-03-19T09:47:34.096Z,19.33
2019-03-19T09:52:39.639Z,20.70
2019-03-19T09:57:45.007Z,17.80
2019-03-19T10:02:51.819Z,22.77
2019-03-19T10:07:57.179Z,17.77
2019-03-19T10:13:02.529Z,19.57
2019-03-19T10:18:07.974Z,23.20
2019-03-19T10:23:13.563Z,20.53
2019-03-19T10:28:19.118Z,25.90
2019-03-19T10:33:24.483Z,12.27
2019-03-19T10:38:29.923Z,11.17
2019-03-19T10:43:35.292Z,11.40
2019-03-19T10:48:40.584Z,11.60
2019-03-19T10:53:45.907Z,9.13
2019-03-19T10:58:51.514Z,11.17
2019-03-19T11:03:57.055Z,5.90
2019-03-19T11:09:02.707Z,11.33
2019-03-19T11:14:08.226Z,11.97
2019-03-19T11:19:13.881Z,10.33
2019-03-19T11:24:19.395Z,14.37
2019-03-19T11:29:24.999Z,17.93
2019-03-19T11:34:30.561Z,15.20
2019-03-19T11:39:35.900Z,13.73
2019-03-19T11:44:42.963Z,16.50
2019-03-19T11:49:48.267Z,13.50
2019-03-19T11:54:53.568Z,13.17
2019-03-19T12:00:10.452Z,10.53
2019-03-19T12:05:09.635Z,13.67
2019-03-19T12:10:15.257Z,11.70
2019-03-19T12:15:20.603Z,9.97
2019-03-19T12:20:26.149Z,9.67
2019-03-19T12:25:31.863Z,10.77
2019-03-19T12:30:37.576Z,11.83
2019-03-19T12:35:43.079Z,11.93
2019-03-19T12:40:48.816Z,13.93
2019-03-19T12:45:54.386Z,13.67
2019-03-19T12:50:59.942Z,8.40
2019-03-19T12:56:05.802Z,7.50
2019-03-19T13:01:11.525Z,12.53
2019-03-19T13:06:18.507Z,8.80
2019-03-19T13:11:24.085Z,9.93
2019-03-19T13:16:29.645Z,6.37
2019-03-19T13:21:35.033Z,10.33
2019-03-19T13:26:40.844Z,8.30
2019-03-19T13:31:46.340Z,14.83
2019-03-19T13:36:51.802Z,7.20
2019-03-19T13:41:57.226Z,5.83
2019-03-19T13:47:02.748Z,10.40
2019-03-19T13:52:08.353Z,7.17
2019-03-19T13:57:14.020Z,7.30
2019-03-19T14:02:19.560Z,8.27
2019-03-19T14:07:24.947Z,7.30
2019-03-19T14:12:30.509Z,10.50
2019-03-19T14:17:36.085Z,13.67
2019-03-19T14:22:41.671Z,10.30
2019-03-19T14:27:47.184Z,9.13
2019-03-19T14:32:52.779Z,5.20
2019-03-19T14:37:58.355Z,8.40
2019-03-19T14:43:03.826Z,6.73
2019-03-19T14:48:09.266Z,8.33
2019-03-19T14:53:14.858Z,6.47
2019-03-19T14:58:20.370Z,7.47
2019-03-19T15:03:25.950Z,7.03
2019-03-19T15:08:31.629Z,10.57
2019-03-19T15:13:37.060Z,9.27
2019-03-19T15:18:42.523Z,12.20
2019-03-19T15:23:48.218Z,7.40
2019-03-19T15:28:53.610Z,7.80
2019-03-19T15:33:59.254Z,7.17
2019-03-19T15:39:06.403Z,7.40
2019-03-19T15:44:11.796Z,5.67
2019-03-19T15:49:17.307Z,7.57
2019-03-19T15:54:22.930Z,5.23
2019-03-19T15:59:28.586Z,6.60
2019-03-19T16:04:34.279Z,8.63
2019-03-19T16:09:40.482Z,5.70
2019-03-19T16:14:46.021Z,3.90
2019-03-19T16:19:51.508Z,7.60
2019-03-19T16:24:56.995Z,7.03
2019-03-19T16:30:02.515Z,9.30
2019-03-19T16:35:08.377Z,7.13
2019-03-19T16:40:16.348Z,5.23
2019-03-19T16:45:21.953Z,10.27
2019-03-19T16:50:27.683Z,3.37
2019-03-19T16:55:33.427Z,7.47
2019-03-19T17:00:39.106Z,4.53
2019-03-19T17:05:44.837Z,4.87
2019-03-19T17:10:50.515Z,2.73
2019-03-19T17:15:56.192Z,7.47
2019-03-19T17:21:01.534Z,12.83
2019-03-19T17:26:07.292Z,9.70
2019-03-19T17:31:12.754Z,7.83
2019-03-19T17:36:18.011Z,6.70
2019-03-19T17:41:24.027Z,8.43
2019-03-19T17:46:29.673Z,9.30
2019-03-19T17:51:35.182Z,7.87
2019-03-19T17:56:40.887Z,7.15
2019-03-19T18:01:46.626Z,7.58
2019-03-19T18:06:52.334Z,4.40
2019-03-19T18:11:58.211Z,20.47
2019-03-19T18:17:03.869Z,8.37
2019-03-19T18:22:09.539Z,12.23
2019-03-19T18:27:15.660Z,7.73
2019-03-19T18:32:21.378Z,12.45
2019-03-19T18:37:27.112Z,11.05
2019-03-19T18:42:32.893Z,13.77
2019-03-19T18:47:38.408Z,7.47
2019-03-19T18:52:44.135Z,8.70
2019-03-19T18:57:49.968Z,10.47
2019-03-19T19:02:55.513Z,11.90
2019-03-19T19:08:01.061Z,7.00
2019-03-19T19:13:06.813Z,12.75
2019-03-19T19:18:12.546Z,10.87
2019-03-19T19:23:18.164Z,10.87
2019-03-19T19:28:25.079Z,13.70
2019-03-19T19:33:34.207Z,17.83
2019-03-19T19:38:40.007Z,12.95
2019-03-19T19:43:45.563Z,15.43
2019-03-19T19:48:51.179Z,10.03
2019-03-19T19:53:56.773Z,9.27
2019-03-19T19:59:02.467Z,12.80
2019-03-19T20:04:08.341Z,21.73
2019-03-19T20:09:14.213Z,21.30
2019-03-19T20:14:19.753Z,17.93
2019-03-19T20:19:25.210Z,12.17
2019-03-19T20:24:30.955Z,16.83
2019-03-19T20:29:37.221Z,14.20
2019-03-19T20:34:42.847Z,13.10
2019-03-19T20:39:48.564Z,14.17
2019-03-19T20:44:54.276Z,15.07
2019-03-19T20:49:59.914Z,22.93
2019-03-19T20:55:05.748Z,16.57
2019-03-19T21:00:13.772Z,18.57
2019-03-19T21:05:19.477Z,15.27
2019-03-19T21:10:25.042Z,15.87
2019-03-19T21:15:30.826Z,20.53
2019-03-19T21:20:36.276Z,21.20
2019-03-19T21:25:41.844Z,18.33
2019-03-19T21:30:47.610Z,18.00
2019-03-19T21:35:52.963Z,17.33
2019-03-19T21:40:58.638Z,20.17
2019-03-19T21:46:04.188Z,20.20
2019-03-19T21:51:09.898Z,16.03
2019-03-19T21:56:15.280Z,20.57
2019-03-19T22:01:20.801Z,18.97
2019-03-19T22:06:26.469Z,22.70
2019-03-19T22:11:32.130Z,19.43
2019-03-19T22:16:37.797Z,22.37
2019-03-19T22:21:43.365Z,24.07
2019-03-19T22:26:48.933Z,24.75
2019-03-19T22:31:54.605Z,26.13
2019-03-19T22:37:00.264Z,26.10
2019-03-19T22:42:05.834Z,20.83
2019-03-19T22:47:11.414Z,22.70
2019-03-19T22:52:16.954Z,23.47
2019-03-19T22:57:22.613Z,26.10
2019-03-19T23:02:28.441Z,22.47
2019-03-19T23:07:33.962Z,27.43
2019-03-19T23:12:39.614Z,23.83
2019-03-19T23:17:45.410Z,21.63
2019-03-19T23:22:50.842Z,26.37
2019-03-19T23:27:56.233Z,17.03
2019-03-19T23:33:02.224Z,21.87
2019-03-19T23:38:07.869Z,19.63
2019-03-19T23:43:13.324Z,22.97
2019-03-19T23:48:18.903Z,20.67
2019-03-19T23:53:24.315Z,25.57
2019-03-19T23:58:30.058Z,24.23
